Big Pond, Massachusetts
Current Conditions -  °F | °C
As of 11:53 AM on Friday 28 Nov 2014 (Local Time) from KBAF Reporting Station
Few Clouds Few Clouds  
Wind Chill: 25°   Ceiling: Unl
Heat Index: 33°   Visibility: 10mi
Dew Point: 19°   Wind: 9mph
Humidity: 56%   Direction: 320°NW
Pressure: 30.1"   Gusts: 20mph
Location:  42.1613°N, 73.0508°W
Report Text: KBAF 281653Z 32008G17KT 10SM FEW035 01/M07 A3010 RMK AO2 SLP198 T00061072
Loading
Personal Weather Stations






























Interactive Weather Map New forecast layout! Learn more

10-Day Weather Forecast

Advertisements
Track Severe Weather on mobile